Time;durP1;ratioP1;P1;durP2;ratioP2;P2;SDS_P1;SDS_P2;PMS_P1;PMS_P2;Temp;Humidity;BMP_temperature;BMP_pressure;BME280_temperature;BME280_humidity;BME280_pressure;Samples;Min_cycle;Max_cycle;Signal;HPM_P1;HPM_P2
2022/04/09 00:00:46;;;;;;;7.27;6.80;;;4.50;99.90;;;;;;5032330;28;20249;-65
2022/04/09 00:03:12;;;;;;;10.13;7.47;;;4.50;99.90;;;;;;5032604;28;20285;-65
2022/04/09 00:05:37;;;;;;;10.27;9.17;;;4.50;99.90;;;;;;5031975;28;20198;-67
2022/04/09 00:08:03;;;;;;;9.57;7.90;;;4.50;99.90;;;;;;5032542;28;20202;-65
2022/04/09 00:10:29;;;;;;;12.83;7.93;;;4.40;99.90;;;;;;5032068;28;20211;-65
2022/04/09 00:12:54;;;;;;;9.87;8.90;;;4.40;99.90;;;;;;5032116;28;20625;-65
2022/04/09 00:15:20;;;;;;;8.67;7.97;;;4.40;99.90;;;;;;5032251;28;20168;-65
2022/04/09 00:17:47;;;;;;;7.73;7.10;;;4.40;99.90;;;;;;5032027;28;20258;-65
2022/04/09 00:20:18;;;;;;;10.60;8.03;;;4.40;99.90;;;;;;5032211;28;20199;-65
2022/04/09 00:22:44;;;;;;;8.87;8.03;;;4.30;99.90;;;;;;5030773;28;20179;-65
2022/04/09 00:25:15;;;;;;;9.53;8.73;;;4.30;99.90;;;;;;5031985;28;20187;-65
2022/04/09 00:27:41;;;;;;;10.67;8.00;;;4.30;99.90;;;;;;5030739;28;20278;-65
2022/04/09 00:30:09;;;;;;;14.93;9.10;;;4.30;99.90;;;;;;5031897;28;20290;-64
2022/04/09 00:32:35;;;;;;;9.40;8.50;;;4.30;99.90;;;;;;5031621;28;20525;-65
2022/04/09 00:35:02;;;;;;;8.47;7.43;;;4.30;99.90;;;;;;5030127;28;20262;-64
2022/04/09 00:37:29;;;;;;;11.17;8.10;;;4.30;99.90;;;;;;5032083;28;20588;-65
2022/04/09 00:39:55;;;;;;;11.00;8.80;;;4.40;99.90;;;;;;5031403;28;20214;-65
2022/04/09 00:42:20;;;;;;;8.33;7.57;;;4.40;99.90;;;;;;5031770;28;20538;-64
2022/04/09 00:44:47;;;;;;;16.97;9.33;;;4.40;99.90;;;;;;5031299;28;20183;-65
2022/04/09 00:47:13;;;;;;;12.97;9.47;;;4.40;99.90;;;;;;5030301;28;20187;-65
2022/04/09 00:49:40;;;;;;;10.10;8.10;;;4.40;99.90;;;;;;5030375;28;20218;-65
2022/04/09 00:52:07;;;;;;;10.50;8.60;;;4.40;99.90;;;;;;5031504;28;20207;-65
2022/04/09 00:54:38;;;;;;;11.10;7.83;;;4.40;99.90;;;;;;5031507;28;20214;-65
2022/04/09 00:57:05;;;;;;;11.90;9.73;;;4.40;99.90;;;;;;5031710;28;20202;-65
2022/04/09 00:59:34;;;;;;;9.97;8.97;;;4.40;99.90;;;;;;5031597;28;20187;-65
2022/04/09 01:02:01;;;;;;;9.33;8.60;;;4.40;99.90;;;;;;5031566;28;20192;-65
2022/04/09 01:04:27;;;;;;;10.00;7.80;;;4.40;99.90;;;;;;5031404;28;20230;-65
2022/04/09 01:06:55;;;;;;;9.57;8.43;;;4.40;99.90;;;;;;5031202;28;20222;-65
2022/04/09 01:09:21;;;;;;;11.37;8.93;;;4.40;99.90;;;;;;5031616;28;20245;-65
2022/04/09 01:11:47;;;;;;;9.80;8.73;;;4.30;99.90;;;;;;5031336;28;20211;-65
2022/04/09 01:14:13;;;;;;;15.43;10.30;;;4.30;99.90;;;;;;5031505;28;20168;-65
2022/04/09 01:16:39;;;;;;;19.03;9.43;;;4.30;99.90;;;;;;5031086;28;20179;-65
2022/04/09 01:19:05;;;;;;;13.90;8.97;;;4.30;99.90;;;;;;5031716;28;20194;-65
2022/04/09 01:21:31;;;;;;;9.10;8.20;;;4.20;99.90;;;;;;5031509;28;20183;-65
2022/04/09 01:23:57;;;;;;;9.07;8.37;;;4.20;99.90;;;;;;5030358;28;20194;-65
2022/04/09 01:26:23;;;;;;;10.70;8.70;;;4.10;99.90;;;;;;5031226;28;20579;-65
2022/04/09 01:28:49;;;;;;;12.80;8.50;;;4.10;99.90;;;;;;5031761;28;20186;-65
2022/04/09 01:31:16;;;;;;;10.67;9.60;;;4.00;99.90;;;;;;5031765;28;20218;-65
2022/04/09 01:33:42;;;;;;;9.97;9.07;;;3.90;99.90;;;;;;5031717;28;20274;-65
2022/04/09 01:36:07;;;;;;;8.63;7.80;;;3.90;99.90;;;;;;5031927;28;20542;-64
2022/04/09 01:38:34;;;;;;;14.20;8.53;;;3.90;99.90;;;;;;5031083;28;20184;-65
2022/04/09 01:41:04;;;;;;;11.10;9.70;;;3.80;99.90;;;;;;5031071;28;20222;-65
2022/04/09 01:43:30;;;;;;;13.87;9.40;;;3.80;99.90;;;;;;5031559;28;20548;-65
2022/04/09 01:45:55;;;;;;;12.27;8.70;;;3.70;99.90;;;;;;5032708;28;20218;-66
2022/04/09 01:48:21;;;;;;;9.43;8.53;;;3.70;99.90;;;;;;5035109;28;20190;-65
2022/04/09 01:50:47;;;;;;;12.30;8.43;;;3.70;99.90;;;;;;5034929;28;20265;-65
2022/04/09 01:53:14;;;;;;;11.63;10.53;;;3.70;99.90;;;;;;5035201;28;20186;-65
2022/04/09 01:55:40;;;;;;;12.27;8.50;;;3.70;99.90;;;;;;5034663;28;20260;-65
2022/04/09 01:58:06;;;;;;;15.47;9.50;;;3.70;99.90;;;;;;5034956;28;20657;-66
2022/04/09 02:00:32;;;;;;;15.73;9.17;;;3.80;99.90;;;;;;5034333;28;20218;-65
2022/04/09 02:02:58;;;;;;;9.97;8.97;;;3.90;99.90;;;;;;5033568;28;20594;-65
2022/04/09 02:05:25;;;;;;;12.50;8.40;;;3.90;99.90;;;;;;5034329;28;20184;-66
2022/04/09 02:07:51;;;;;;;11.13;10.10;;;4.00;99.90;;;;;;5034719;28;20180;-66
2022/04/09 02:10:18;;;;;;;9.40;8.50;;;4.10;99.90;;;;;;5034293;28;20211;-66
2022/04/09 02:12:46;;;;;;;9.43;8.40;;;4.10;99.90;;;;;;5033582;28;20203;-65
2022/04/09 02:15:14;;;;;;;13.80;10.97;;;4.00;99.90;;;;;;5033660;28;20190;-68
2022/04/09 02:17:41;;;;;;;13.97;9.00;;;4.00;99.90;;;;;;5034633;28;20262;-71
2022/04/09 02:20:09;;;;;;;10.60;9.47;;;4.00;99.90;;;;;;5034302;28;20199;-71
2022/04/09 02:22:38;;;;;;;14.17;9.47;;;3.90;99.90;;;;;;5034535;28;20179;-68
2022/04/09 02:25:05;;;;;;;17.83;9.43;;;3.90;99.90;;;;;;5035334;28;20180;-69
2022/04/09 02:27:31;;;;;;;9.53;8.60;;;3.80;99.90;;;;;;5035491;28;20546;-70
2022/04/09 02:29:56;;;;;;;12.07;8.77;;;3.80;99.90;;;;;;5034994;28;20204;-68
2022/04/09 02:32:22;;;;;;;10.63;9.60;;;3.80;99.90;;;;;;5035265;28;20182;-69
2022/04/09 02:34:49;;;;;;;13.83;9.93;;;3.80;99.90;;;;;;5035173;28;20172;-69
2022/04/09 02:37:15;;;;;;;11.67;8.40;;;3.80;99.90;;;;;;5035348;28;20171;-69
2022/04/09 02:39:41;;;;;;;17.07;10.13;;;3.80;99.90;;;;;;5033730;28;20217;-71
2022/04/09 02:42:06;;;;;;;13.33;9.23;;;3.80;99.90;;;;;;5034177;28;20214;-69
2022/04/09 02:44:32;;;;;;;13.93;9.57;;;3.80;99.90;;;;;;5034625;28;20222;-70
2022/04/09 02:46:58;;;;;;;12.57;10.87;;;3.80;99.90;;;;;;5014061;28;20582;-70
2022/04/09 02:49:24;;;;;;;9.40;8.47;;;3.80;99.90;;;;;;5017275;28;20187;-68
2022/04/09 02:51:49;;;;;;;16.93;9.20;;;3.80;99.90;;;;;;5035387;28;20206;-68
2022/04/09 02:54:16;;;;;;;15.70;9.77;;;3.80;99.90;;;;;;5035288;28;20179;-70
2022/04/09 02:56:43;;;;;;;10.93;9.90;;;3.80;99.90;;;;;;5034150;28;20259;-68
2022/04/09 02:59:10;;;;;;;18.47;8.83;;;3.80;99.90;;;;;;5033707;28;20543;-68
2022/04/09 03:01:36;;;;;;;11.27;8.93;;;3.90;99.90;;;;;;5035106;28;20203;-67
2022/04/09 03:04:03;;;;;;;16.33;9.30;;;3.80;99.90;;;;;;5033888;28;20218;-67
2022/04/09 03:06:29;;;;;;;13.70;9.30;;;3.90;99.90;;;;;;5035092;28;20189;-68
2022/04/09 03:08:54;;;;;;;11.17;8.17;;;4.00;99.90;;;;;;5033488;28;20179;-67
2022/04/09 03:11:20;;;;;;;14.37;8.60;;;4.00;99.90;;;;;;5035368;28;20207;-68
2022/04/09 03:13:45;;;;;;;18.60;9.47;;;3.90;99.90;;;;;;5035058;28;20653;-67
2022/04/09 03:16:11;;;;;;;16.93;10.57;;;4.00;99.90;;;;;;5034444;28;20346;-71
2022/04/09 03:18:37;;;;;;;17.77;9.00;;;4.00;99.90;;;;;;5034697;28;20187;-68
2022/04/09 03:21:02;;;;;;;9.90;8.80;;;4.00;99.90;;;;;;5034640;28;20203;-68
2022/04/09 03:23:28;;;;;;;16.93;9.37;;;3.90;99.90;;;;;;5034743;28;20221;-69
2022/04/09 03:25:53;;;;;;;16.90;9.40;;;3.90;99.90;;;;;;5034032;28;20213;-68
2022/04/09 03:28:19;;;;;;;11.97;9.30;;;3.90;99.90;;;;;;5035255;28;20182;-71
2022/04/09 03:30:45;;;;;;;10.87;9.87;;;4.00;99.90;;;;;;5033909;28;20219;-68
2022/04/09 03:33:11;;;;;;;11.40;9.13;;;3.90;99.90;;;;;;5034925;28;20172;-69
2022/04/09 03:35:37;;;;;;;12.43;9.77;;;4.00;99.90;;;;;;5035497;28;20629;-67
2022/04/09 03:38:02;;;;;;;16.63;9.60;;;4.10;99.90;;;;;;5034160;28;20176;-68
2022/04/09 03:40:28;;;;;;;14.27;9.13;;;4.10;99.90;;;;;;5033353;28;20294;-68
2022/04/09 03:42:54;;;;;;;14.50;9.50;;;4.20;99.90;;;;;;5035431;28;20470;-67
2022/04/09 03:45:20;;;;;;;12.67;8.90;;;4.20;99.90;;;;;;5032792;28;20183;-69
2022/04/09 03:47:45;;;;;;;10.33;8.90;;;4.20;99.90;;;;;;5034083;28;20237;-69
2022/04/09 03:50:11;;;;;;;12.97;9.90;;;4.30;99.90;;;;;;5034268;28;20215;-70
2022/04/09 03:52:38;;;;;;;9.53;8.50;;;4.20;99.90;;;;;;5034018;28;20180;-69
2022/04/09 03:55:04;;;;;;;16.20;10.00;;;4.20;99.90;;;;;;5034283;28;20172;-68
2022/04/09 03:57:30;;;;;;;10.10;9.20;;;4.20;99.90;;;;;;5033169;28;20247;-71
2022/04/09 03:59:57;;;;;;;13.60;9.07;;;4.20;99.90;;;;;;5034653;28;20191;-68
2022/04/09 04:02:23;;;;;;;10.03;8.33;;;4.20;99.90;;;;;;5034877;28;20343;-69
2022/04/09 04:04:49;;;;;;;12.70;10.97;;;4.30;99.90;;;;;;5034604;28;20176;-67
2022/04/09 04:07:20;;;;;;;11.20;9.97;;;4.30;99.90;;;;;;5032688;28;20298;-64
2022/04/09 04:09:46;;;;;;;13.43;9.20;;;4.30;99.90;;;;;;5032532;28;20669;-65
2022/04/09 04:12:12;;;;;;;10.23;9.30;;;4.30;99.90;;;;;;5034129;28;20206;-65
2022/04/09 04:14:37;;;;;;;13.30;9.90;;;4.30;99.90;;;;;;5033983;28;20247;-64
2022/04/09 04:17:03;;;;;;;16.90;9.80;;;4.30;99.90;;;;;;5033570;28;20186;-65
2022/04/09 04:19:29;;;;;;;14.27;9.17;;;4.30;99.90;;;;;;5034201;28;20195;-65
2022/04/09 04:21:54;;;;;;;14.57;9.10;;;4.30;99.90;;;;;;5034129;28;20191;-65
2022/04/09 04:24:20;;;;;;;11.30;9.70;;;4.30;99.90;;;;;;5034265;28;20222;-67
2022/04/09 04:26:45;;;;;;;17.30;9.47;;;4.30;99.90;;;;;;5033282;28;20636;-64
2022/04/09 04:29:11;;;;;;;11.57;9.20;;;4.30;99.90;;;;;;5033873;28;20180;-64
2022/04/09 04:31:36;;;;;;;14.27;8.83;;;4.30;99.90;;;;;;5032286;28;20692;-64
2022/04/09 04:34:02;;;;;;;17.53;9.43;;;4.30;99.90;;;;;;5034355;28;20241;-64
2022/04/09 04:36:28;;;;;;;16.17;8.93;;;4.20;99.90;;;;;;5032523;28;20175;-65
2022/04/09 04:38:54;;;;;;;19.23;9.50;;;4.20;99.90;;;;;;5033538;28;20655;-65
2022/04/09 04:41:19;;;;;;;13.67;8.73;;;4.20;99.90;;;;;;5032398;28;20660;-64
2022/04/09 04:43:49;;;;;;;11.30;9.27;;;4.20;99.90;;;;;;5033978;28;20191;-64
2022/04/09 04:46:14;;;;;;;14.60;9.17;;;4.20;99.90;;;;;;5032045;28;20179;-64
2022/04/09 04:48:40;;;;;;;9.57;8.63;;;4.20;99.90;;;;;;5033782;28;20180;-65
2022/04/09 04:51:06;;;;;;;10.90;9.03;;;4.20;99.90;;;;;;5034247;28;20313;-64
2022/04/09 04:53:31;;;;;;;15.57;9.63;;;4.20;99.90;;;;;;5032775;28;20641;-65
2022/04/09 04:55:57;;;;;;;17.47;9.07;;;4.10;99.90;;;;;;5033768;28;20207;-64
2022/04/09 04:58:22;;;;;;;16.77;9.23;;;4.10;99.90;;;;;;5032736;28;20179;-65
2022/04/09 05:00:49;;;;;;;12.47;9.30;;;4.10;99.90;;;;;;5032934;28;20206;-64
2022/04/09 05:03:15;;;;;;;9.83;8.93;;;4.10;99.90;;;;;;5032104;28;20233;-64
2022/04/09 05:05:41;;;;;;;17.80;8.97;;;4.10;99.90;;;;;;5032576;28;20179;-64
2022/04/09 05:08:07;;;;;;;12.73;9.63;;;4.10;99.90;;;;;;5033470;28;20176;-64
2022/04/09 05:10:32;;;;;;;15.80;9.73;;;4.00;99.90;;;;;;5031355;28;20227;-65
2022/04/09 05:12:59;;;;;;;9.97;8.60;;;4.00;99.90;;;;;;5033922;28;20645;-65
2022/04/09 05:15:25;;;;;;;12.17;9.47;;;4.00;99.90;;;;;;5033513;28;20645;-64
2022/04/09 05:17:50;;;;;;;12.57;8.40;;;3.90;99.90;;;;;;5033548;28;20176;-64
2022/04/09 05:20:16;;;;;;;14.13;9.50;;;3.90;99.90;;;;;;5033247;28;20221;-65
2022/04/09 05:22:46;;;;;;;15.23;9.07;;;3.90;99.90;;;;;;5033457;28;20191;-64
2022/04/09 05:25:13;;;;;;;9.63;8.77;;;3.90;99.90;;;;;;5033025;28;20202;-64
2022/04/09 05:27:39;;;;;;;15.30;9.40;;;3.90;99.90;;;;;;5032833;28;20180;-64
2022/04/09 05:30:06;;;;;;;16.80;9.30;;;3.90;99.90;;;;;;5032227;28;20612;-64
2022/04/09 05:32:31;;;;;;;19.10;11.63;;;3.90;99.90;;;;;;5032749;28;20183;-65
2022/04/09 05:34:57;;;;;;;17.60;10.50;;;3.90;99.90;;;;;;5032383;28;20168;-65
2022/04/09 05:37:23;;;;;;;15.10;10.20;;;3.90;99.90;;;;;;5032871;28;20171;-65
2022/04/09 05:39:48;;;;;;;15.77;9.83;;;4.00;99.90;;;;;;5032233;28;20215;-65
2022/04/09 05:42:14;;;;;;;15.90;10.07;;;4.00;99.90;;;;;;5032528;28;20207;-65
2022/04/09 05:44:40;;;;;;;14.47;9.97;;;4.10;99.90;;;;;;5030336;28;20648;-65
2022/04/09 05:47:06;;;;;;;17.27;10.20;;;4.10;99.90;;;;;;5029935;28;20225;-65
2022/04/09 05:49:32;;;;;;;10.53;9.23;;;4.10;99.90;;;;;;5031163;28;20283;-65
2022/04/09 05:51:58;;;;;;;25.17;9.57;;;4.10;99.90;;;;;;5030787;28;20199;-65
2022/04/09 05:54:24;;;;;;;15.20;9.30;;;4.10;99.90;;;;;;5031231;28;20310;-65
2022/04/09 05:56:50;;;;;;;18.47;9.27;;;4.10;99.90;;;;;;5030537;28;20245;-65
2022/04/09 05:59:17;;;;;;;12.43;9.87;;;4.10;99.90;;;;;;5029008;28;20187;-65
2022/04/09 06:01:43;;;;;;;9.73;8.50;;;4.20;99.90;;;;;;5030683;28;20191;-64
2022/04/09 06:04:09;;;;;;;14.33;10.50;;;4.20;99.90;;;;;;5031361;28;20175;-65
2022/04/09 06:06:37;;;;;;;14.90;10.10;;;4.30;99.90;;;;;;5030259;28;20184;-65
2022/04/09 06:09:03;;;;;;;17.67;11.27;;;4.40;99.90;;;;;;5030743;28;20250;-65
2022/04/09 06:11:29;;;;;;;15.37;9.63;;;4.50;99.90;;;;;;5029265;28;20257;-65
2022/04/09 06:13:55;;;;;;;14.73;8.40;;;4.70;99.90;;;;;;5030857;28;20203;-65
2022/04/09 06:16:22;;;;;;;12.70;9.50;;;4.80;99.90;;;;;;5030449;28;20707;-64
2022/04/09 06:18:48;;;;;;;13.60;9.47;;;5.10;99.90;;;;;;5030539;28;20176;-65
2022/04/09 06:21:14;;;;;;;18.33;9.20;;;5.40;99.90;;;;;;5030455;28;20249;-64
2022/04/09 06:23:40;;;;;;;11.00;8.97;;;5.40;99.90;;;;;;5030830;28;20179;-65
2022/04/09 06:26:06;;;;;;;14.53;8.20;;;5.40;99.90;;;;;;5030148;28;20191;-65
2022/04/09 06:28:33;;;;;;;14.67;9.17;;;5.60;99.90;;;;;;5030600;28;20175;-65
2022/04/09 06:30:59;;;;;;;17.13;9.53;;;5.70;99.90;;;;;;5031892;28;20602;-65
2022/04/09 06:33:25;;;;;;;9.67;8.63;;;5.90;99.90;;;;;;5033142;28;20233;-64
2022/04/09 06:35:50;;;;;;;15.10;9.47;;;6.20;99.90;;;;;;5033714;28;20542;-65
2022/04/09 06:38:16;;;;;;;14.73;9.27;;;6.50;99.90;;;;;;5033917;28;20198;-64
2022/04/09 06:40:42;;;;;;;12.80;8.30;;;6.80;99.90;;;;;;5033480;28;20207;-65
2022/04/09 06:43:07;;;;;;;9.20;8.10;;;7.20;99.90;;;;;;5033943;28;20696;-65
2022/04/09 06:45:33;;;;;;;14.70;8.70;;;7.40;99.90;;;;;;5033482;28;20195;-65
2022/04/09 06:47:59;;;;;;;13.43;9.80;;;7.60;99.90;;;;;;5033766;28;20545;-66
2022/04/09 06:50:25;;;;;;;12.33;8.97;;;7.80;99.90;;;;;;5033545;28;20203;-64
2022/04/09 06:52:50;;;;;;;9.17;8.17;;;8.00;99.90;;;;;;5033405;28;20183;-65
2022/04/09 06:55:16;;;;;;;12.43;9.50;;;7.90;99.90;;;;;;5033025;28;20188;-66
2022/04/09 06:57:42;;;;;;;9.33;8.60;;;7.60;99.90;;;;;;5033596;28;20676;-70
2022/04/09 07:00:13;;;;;;;9.47;7.70;;;7.70;99.90;;;;;;5033098;28;20245;-63
2022/04/09 07:02:39;;;;;;;9.30;8.10;;;7.90;99.90;;;;;;5033289;28;20207;-64
2022/04/09 07:05:05;;;;;;;9.80;8.70;;;7.90;99.90;;;;;;5032430;28;20210;-65
2022/04/09 07:07:31;;;;;;;9.10;7.83;;;8.10;99.90;;;;;;5032907;28;20179;-65
2022/04/09 07:10:07;;;;;;;9.00;6.93;;;8.20;99.90;;;;;;5033035;28;20265;-65
2022/04/09 07:12:32;;;;;;;12.30;7.17;;;8.30;99.90;;;;;;5033324;28;20179;-65
2022/04/09 07:14:58;;;;;;;9.97;6.80;;;8.50;99.90;;;;;;5033132;28;20185;-65
2022/04/09 07:17:26;;;;;;;14.97;7.97;;;8.60;99.90;;;;;;5032993;28;20632;-65
2022/04/09 07:19:52;;;;;;;13.47;7.87;;;8.60;99.90;;;;;;5033766;28;20204;-65
2022/04/09 07:22:18;;;;;;;11.70;7.17;;;8.80;99.90;;;;;;5033789;28;20245;-65
2022/04/09 07:24:43;;;;;;;14.50;7.30;;;9.20;99.90;;;;;;5032758;28;20184;-65
2022/04/09 07:27:09;;;;;;;11.27;8.83;;;9.40;99.90;;;;;;5033045;28;20515;-64
2022/04/09 07:29:35;;;;;;;12.10;8.10;;;9.20;99.90;;;;;;5032925;28;20568;-66
2022/04/09 07:32:00;;;;;;;11.47;7.27;;;8.80;99.90;;;;;;5032754;28;20208;-65
2022/04/09 07:34:26;;;;;;;10.53;6.73;;;8.90;99.90;;;;;;5032815;28;20180;-65
2022/04/09 07:36:52;;;;;;;7.90;7.10;;;9.20;99.90;;;;;;5032389;28;20272;-65
2022/04/09 07:39:17;;;;;;;17.67;6.97;;;9.60;99.90;;;;;;5030767;28;20195;-65
2022/04/09 07:41:43;;;;;;;15.80;7.27;;;9.90;99.90;;;;;;5029025;28;20675;-65
2022/04/09 07:44:08;;;;;;;10.83;6.77;;;10.00;99.90;;;;;;5030495;28;20178;-66
2022/04/09 07:46:34;;;;;;;13.03;6.87;;;10.20;99.90;;;;;;5031096;28;20233;-65
2022/04/09 07:49:00;;;;;;;14.10;7.30;;;10.50;99.90;;;;;;5030966;28;20770;-65
2022/04/09 07:51:26;;;;;;;10.23;6.37;;;10.40;99.90;;;;;;5032616;28;20207;-65
2022/04/09 07:53:51;;;;;;;8.47;6.50;;;10.00;99.90;;;;;;5032337;28;20188;-64
2022/04/09 07:56:17;;;;;;;10.73;7.50;;;9.60;99.90;;;;;;5032462;28;20186;-65
2022/04/09 07:58:43;;;;;;;15.50;7.20;;;9.30;99.90;;;;;;5032059;28;20544;-65
2022/04/09 08:01:09;;;;;;;13.17;7.60;;;9.80;99.90;;;;;;5032481;28;20203;-65
2022/04/09 08:03:35;;;;;;;9.83;6.97;;;10.10;99.90;;;;;;5032683;28;20175;-65
2022/04/09 08:06:00;;;;;;;9.00;6.57;;;10.20;99.90;;;;;;5032028;28;20606;-65
2022/04/09 08:08:26;;;;;;;17.60;7.20;;;10.10;99.90;;;;;;5033106;28;20198;-65
2022/04/09 08:10:51;;;;;;;12.03;6.90;;;10.40;99.90;;;;;;5032173;28;20326;-65
2022/04/09 08:13:18;;;;;;;14.37;7.63;;;10.30;99.90;;;;;;5030786;28;20543;-65
2022/04/09 08:15:44;;;;;;;10.70;6.87;;;10.20;99.90;;;;;;5032748;28;20234;-65
2022/04/09 08:18:11;;;;;;;15.20;6.90;;;10.10;99.90;;;;;;5033030;28;20190;-65
2022/04/09 08:20:37;;;;;;;12.67;7.17;;;10.00;99.90;;;;;;5032507;28;20207;-65
2022/04/09 08:23:03;;;;;;;9.70;6.83;;;10.10;99.90;;;;;;5030506;28;20186;-64
2022/04/09 08:25:29;;;;;;;11.63;6.27;;;9.90;99.90;;;;;;5032153;28;20183;-65
2022/04/09 08:27:55;;;;;;;7.93;6.30;;;9.80;99.90;;;;;;5032158;28;20187;-65
2022/04/09 08:30:22;;;;;;;6.87;6.10;;;9.80;99.90;;;;;;5031810;28;20289;-65
2022/04/09 08:32:49;;;;;;;12.47;6.40;;;9.90;99.90;;;;;;5031854;28;20171;-65
2022/04/09 08:35:16;;;;;;;7.70;6.67;;;9.80;99.90;;;;;;5033188;28;20180;-65
2022/04/09 08:37:41;;;;;;;8.70;5.87;;;10.20;99.90;;;;;;5032059;28;20183;-64
2022/04/09 08:40:12;;;;;;;14.03;6.67;;;10.70;99.90;;;;;;5031395;28;20585;-66
2022/04/09 08:42:37;;;;;;;8.17;6.10;;;10.80;99.90;;;;;;5031450;28;20226;-66
2022/04/09 08:45:03;;;;;;;7.17;6.40;;;10.50;99.90;;;;;;5031108;28;20210;-66
2022/04/09 08:47:30;;;;;;;7.27;6.03;;;10.40;99.90;;;;;;5031491;28;20229;-66
2022/04/09 08:49:56;;;;;;;6.00;5.53;;;10.60;99.90;;;;;;5031527;28;20223;-65
2022/04/09 08:52:22;;;;;;;10.37;7.07;;;10.40;99.90;;;;;;5031621;28;20261;-65
2022/04/09 08:54:48;;;;;;;6.37;5.87;;;10.40;99.90;;;;;;5030484;28;20598;-65
2022/04/09 08:57:14;;;;;;;8.00;6.17;;;10.50;99.90;;;;;;5031226;28;20262;-65
2022/04/09 08:59:40;;;;;;;8.00;6.23;;;10.20;99.90;;;;;;5031571;28;20204;-64
2022/04/09 09:02:06;;;;;;;6.80;6.13;;;10.40;99.90;;;;;;5031361;28;20190;-65
2022/04/09 09:04:33;;;;;;;9.67;6.37;;;10.70;99.90;;;;;;5030974;28;20190;-66
2022/04/09 09:07:20;;;;;;;13.13;6.43;;;11.00;99.90;;;;;;5029957;28;20182;-65
2022/04/09 09:09:45;;;;;;;7.77;6.57;;;11.40;99.90;;;;;;5013515;28;20200;-65
2022/04/09 09:12:12;;;;;;;11.13;6.57;;;11.60;99.90;;;;;;5031139;28;20268;-66
2022/04/09 09:14:45;;;;;;;11.13;6.77;;;11.70;99.90;;;;;;5030818;28;20582;-65
2022/04/09 09:17:11;;;;;;;12.77;7.27;;;11.70;99.90;;;;;;5030912;28;20171;-65
2022/04/09 09:19:47;;;;;;;10.00;6.83;;;11.70;99.90;;;;;;5030974;28;20206;-66
2022/04/09 09:22:18;;;;;;;11.17;6.73;;;11.20;99.90;;;;;;5031085;28;20245;-65
2022/04/09 09:25:00;;;;;;;8.97;6.40;;;10.70;99.90;;;;;;5011134;28;20263;-65
2022/04/09 09:27:26;;;;;;;15.17;6.73;;;10.40;99.90;;;;;;5023276;28;20218;-65
2022/04/09 09:29:53;;;;;;;23.57;12.67;;;10.20;99.90;;;;;;5030788;28;20241;-66
2022/04/09 09:32:25;;;;;;;11.47;8.10;;;10.20;99.90;;;;;;5029830;28;20308;-66
2022/04/09 09:34:59;;;;;;;9.00;6.83;;;10.10;99.90;;;;;;5030402;28;20190;-65
2022/04/09 09:37:28;;;;;;;7.53;6.40;;;10.00;99.90;;;;;;5030162;28;20599;-66
2022/04/09 09:39:54;;;;;;;7.53;6.00;;;9.90;99.90;;;;;;5047086;23;20235;-65
2022/04/09 09:42:22;;;;;;;6.80;6.20;;;10.00;99.90;;;;;;5051640;28;20194;-67
2022/04/09 09:44:50;;;;;;;6.60;6.00;;;10.00;99.90;;;;;;5050406;28;20178;-65
2022/04/09 09:47:16;;;;;;;11.40;6.60;;;10.00;99.90;;;;;;5051344;28;20643;-65
2022/04/09 09:49:53;;;;;;;5.93;5.40;;;10.20;99.90;;;;;;5047615;28;20195;-65
2022/04/09 09:52:30;;;;;;;6.97;6.23;;;10.90;99.90;;;;;;5011569;28;20230;-66
2022/04/09 09:55:01;;;;;;;8.77;6.90;;;11.60;99.90;;;;;;5010983;28;20164;-65
2022/04/09 09:57:29;;;;;;;9.10;7.13;;;12.10;99.90;;;;;;5028151;28;20241;-66
2022/04/09 10:00:01;;;;;;;8.40;6.57;;;12.20;99.90;;;;;;5031146;28;20192;-67
2022/04/09 10:02:27;;;;;;;8.63;6.33;;;11.80;99.90;;;;;;5030815;28;20265;-66
2022/04/09 10:04:54;;;;;;;7.93;6.17;;;11.30;99.90;;;;;;5030401;28;20214;-67
2022/04/09 10:07:21;;;;;;;11.80;6.13;;;11.00;99.90;;;;;;5035631;28;20175;-65
2022/04/09 10:09:50;;;;;;;14.47;6.87;;;10.90;99.90;;;;;;5034420;28;20199;-66
2022/04/09 10:12:21;;;;;;;6.60;6.00;;;11.10;99.90;;;;;;5034889;28;20203;-66
2022/04/09 10:14:51;;;;;;;6.40;5.90;;;10.90;99.90;;;;;;5033980;28;20211;-66
2022/04/09 10:17:19;;;;;;;6.77;6.17;;;11.30;99.90;;;;;;5034608;28;20167;-66
2022/04/09 10:19:51;;;;;;;8.10;5.93;;;11.40;99.90;;;;;;5033222;28;20676;-66
2022/04/09 10:22:17;;;;;;;7.97;7.13;;;11.20;99.90;;;;;;5034453;28;20191;-66
2022/04/09 10:24:43;;;;;;;7.03;5.80;;;11.00;99.90;;;;;;5034107;28;20194;-65
2022/04/09 10:27:35;;;;;;;10.50;5.80;;;11.10;99.90;;;;;;5034268;28;20179;-66
2022/04/09 10:30:05;;;;;;;8.80;5.50;;;11.60;99.90;;;;;;5016731;28;20200;-66
2022/04/09 10:33:00;;;;;;;7.03;5.80;;;12.20;99.90;;;;;;5034776;28;20617;-66
2022/04/09 10:35:29;;;;;;;10.93;5.80;;;12.50;99.90;;;;;;5020626;28;20234;-67
2022/04/09 10:38:08;;;;;;;7.43;5.90;;;12.70;99.90;;;;;;5034026;28;20183;-67
2022/04/09 10:40:34;;;;;;;7.20;5.83;;;12.90;99.90;;;;;;5034131;28;20290;-66
2022/04/09 10:43:01;;;;;;;9.37;6.30;;;13.30;99.90;;;;;;5033652;28;20286;-65
2022/04/09 10:45:30;;;;;;;9.83;5.97;;;13.30;99.90;;;;;;5033663;28;20175;-65
2022/04/09 10:48:14;;;;;;;7.27;5.87;;;12.50;99.90;;;;;;5033748;28;20180;-66
2022/04/09 10:51:04;;;;;;;9.70;6.30;;;11.50;99.90;;;;;;5032487;28;20203;-66
2022/04/09 10:53:49;;;;;;;8.30;6.47;;;10.90;99.90;;;;;;5034465;28;20179;-67
2022/04/09 10:56:17;;;;;;;7.23;6.33;;;11.30;99.90;;;;;;5034204;28;20171;-66
2022/04/09 10:59:12;;;;;;;7.07;5.87;;;11.40;99.90;;;;;;5033505;28;20171;-65
2022/04/09 11:01:50;;;;;;;7.17;5.97;;;11.70;99.90;;;;;;5034061;28;20210;-67
2022/04/09 11:07:10;;;;;;;9.60;6.73;;;12.00;99.90;;;;;;5033359;28;20270;-67
2022/04/09 11:09:56;;;;;;;5.90;5.43;;;12.20;99.90;;;;;;5033870;28;20636;-66
2022/04/09 11:12:30;;;;;;;6.23;5.60;;;12.50;99.90;;;;;;5033550;28;20676;-66
2022/04/09 11:15:15;;;;;;;6.90;6.20;;;12.20;99.90;;;;;;5032968;28;20257;-68
2022/04/09 11:17:48;;;;;;;6.60;6.00;;;11.90;99.90;;;;;;5032982;28;20710;-67
2022/04/09 11:20:19;;;;;;;8.23;6.77;;;12.20;99.90;;;;;;5033617;28;20215;-66
2022/04/09 11:22:53;;;;;;;9.07;6.43;;;12.20;99.90;;;;;;5032962;28;20229;-67
2022/04/09 11:25:19;;;;;;;6.67;6.07;;;12.90;99.90;;;;;;5032688;28;20232;-67
2022/04/09 11:27:45;;;;;;;6.13;5.33;;;13.00;99.90;;;;;;5032879;28;20172;-67
2022/04/09 11:30:11;;;;;;;6.43;5.80;;;12.60;99.90;;;;;;5033016;28;20229;-67
2022/04/09 11:32:37;;;;;;;5.67;5.27;;;11.90;99.90;;;;;;5032679;28;20179;-66
2022/04/09 11:35:11;;;;;;;9.07;5.90;;;11.40;99.90;;;;;;5033292;28;20167;-67
2022/04/09 11:37:49;;;;;;;6.90;6.30;;;11.40;99.90;;;;;;5032578;28;20195;-64
2022/04/09 11:40:17;;;;;;;5.90;5.37;;;11.90;99.90;;;;;;5032575;28;20207;-67
2022/04/09 11:42:43;;;;;;;5.43;5.00;;;12.60;99.90;;;;;;5032080;28;20163;-66
2022/04/09 11:45:33;;;;;;;5.10;4.80;;;13.40;99.90;;;;;;5033137;28;20652;-65
2022/04/09 11:48:02;;;;;;;6.43;5.00;;;14.30;99.90;;;;;;5032969;28;20175;-66
2022/04/09 11:50:37;;;;;;;5.90;5.40;;;14.70;99.90;;;;;;5032927;28;20210;-67
2022/04/09 11:53:17;;;;;;;5.90;5.03;;;15.10;99.90;;;;;;5032850;28;20171;-66
2022/04/09 11:55:44;;;;;;;4.50;4.20;;;15.50;99.90;;;;;;5032452;28;20175;-66
2022/04/09 11:58:14;;;;;;;5.73;5.23;;;15.00;99.90;;;;;;5032994;28;20632;-67
2022/04/09 12:00:42;;;;;;;5.27;4.77;;;14.70;99.90;;;;;;5032860;28;20191;-67
2022/04/09 12:03:09;;;;;;;5.17;4.67;;;14.90;99.90;;;;;;5032918;28;20179;-66
2022/04/09 12:05:48;;;;;;;5.53;5.03;;;14.80;99.90;;;;;;5032442;28;20210;-67
2022/04/09 12:08:17;;;;;;;5.93;5.10;;;14.80;99.90;;;;;;5032771;28;20176;-66
2022/04/09 12:10:57;;;;;;;5.50;5.10;;;15.00;99.90;;;;;;5030531;28;20199;-67
2022/04/09 12:13:35;;;;;;;5.50;5.00;;;14.80;99.90;;;;;;5032876;28;20732;-66
2022/04/09 12:16:09;;;;;;;6.30;5.80;;;14.00;99.90;;;;;;5032275;28;20172;-65
2022/04/09 12:18:36;;;;;;;5.93;5.53;;;13.00;99.90;;;;;;5032431;28;20178;-66
2022/04/09 12:21:24;;;;;;;6.67;6.07;;;12.30;99.90;;;;;;5032063;28;20199;-69
2022/04/09 12:24:08;;;;;;;6.70;6.10;;;11.20;99.90;;;;;;5032392;28;20226;-68
2022/04/09 12:26:35;;;;;;;7.27;6.73;;;9.50;99.90;;;;;;5032199;28;20750;-68
2022/04/09 12:29:22;;;;;;;7.60;7.10;;;8.50;99.90;;;;;;5031747;28;20180;-68
2022/04/09 12:31:51;;;;;;;8.20;7.70;;;8.00;99.90;;;;;;5032042;28;20206;-66
2022/04/09 12:34:20;;;;;;;8.00;7.30;;;8.40;99.90;;;;;;5032405;28;20266;-68
2022/04/09 12:37:02;;;;;;;7.63;6.60;;;9.00;99.90;;;;;;5031762;28;20164;-67
2022/04/09 12:39:28;;;;;;;7.33;6.70;;;9.60;99.90;;;;;;5030872;28;20183;-67
2022/04/09 12:41:55;;;;;;;7.93;6.90;;;10.30;99.90;;;;;;5029362;28;20187;-66
2022/04/09 12:44:30;;;;;;;7.73;6.97;;;10.80;99.90;;;;;;5032457;28;20301;-67
2022/04/09 12:46:56;;;;;;;6.80;6.13;;;11.30;99.90;;;;;;5031781;28;20178;-67
2022/04/09 12:49:29;;;;;;;6.47;5.87;;;11.80;99.90;;;;;;5032183;28;20565;-67
2022/04/09 12:51:59;;;;;;;6.03;5.57;;;12.40;99.90;;;;;;5031835;28;20641;-66
2022/04/09 12:54:27;;;;;;;6.73;6.33;;;12.90;99.90;;;;;;5032093;28;20580;-66